Terminal Aerodrome Forecast
Issued by NWS

Home | Current Version | Previous Version | Text Only | Print | Product List | Glossary Off
Versions: 1 2 3 4 5 6 7 8 9 10 11 12 13 14 15 16

000
FTUS43 KICT 162334
TAFSLN
TAF
KSLN 162334Z 1700/1724 11005KT P6SM VCTS SCT020 BKN050CB
      TEMPO 1700/1703 27015G22KT 4SM -TSRA BKN030CB
     FM170900 12008KT P6SM VCTS BKN015 OVC050CB
     FM171600 14015G24KT P6SM SCT020 BKN035=

USA.gov is the U.S. government's official web portal to all federal, state and local government web resources and services.